Elvira, Argentina
Current Conditions -  °F | °C
As of 11:00 AM on Tuesday 27 Jan 2015 (Local Time) from SAEZ Reporting Station
Broken Clouds Broken Clouds  
Wind Chill: 84°   Ceiling: 10000
Heat Index: 86°   Visibility: 6mi
Dew Point: 66°   Wind: 7mph
Humidity: 55%   Direction: 320°NW
Pressure: 29.77"   Gusts: NA
Location:  35.2°S, 59.35°W
Report Text: SAEZ 271400Z 32006KT 280V350 9999 FEW038 BKN100 29/19 Q1008
Loading
Personal Weather Stations






























Interactive Weather Map New forecast layout! Learn more

10-Day Weather Forecast

Advertisements
Track Severe Weather on mobile